createdAt,value
2022-09-12T00:02:44.653Z,100.00
2022-09-12T00:05:47.039Z,100.00
2022-09-12T00:08:48.593Z,100.00
2022-09-12T00:11:50.293Z,100.00
2022-09-12T00:14:51.836Z,100.00
2022-09-12T00:17:53.472Z,100.00
2022-09-12T00:20:55.047Z,100.00
2022-09-12T00:23:56.844Z,100.00
2022-09-12T00:26:58.623Z,100.00
2022-09-12T00:30:00.208Z,100.00
2022-09-12T00:33:01.720Z,100.00
2022-09-12T00:36:07.267Z,100.00
2022-09-12T00:39:09.243Z,100.00
2022-09-12T00:42:11.728Z,100.00
2022-09-12T00:45:20.511Z,100.00
2022-09-12T00:48:23.194Z,100.00
2022-09-12T00:51:24.759Z,100.00
2022-09-12T00:54:27.482Z,100.00
2022-09-12T00:57:33.323Z,100.00
2022-09-12T01:00:34.933Z,100.00
2022-09-12T01:03:36.479Z,100.00
2022-09-12T01:06:39.817Z,100.00
2022-09-12T01:09:42.255Z,100.00
2022-09-12T01:12:43.804Z,100.00
2022-09-12T01:15:45.887Z,100.00
2022-09-12T01:18:51.707Z,100.00
2022-09-12T01:22:31.833Z,100.00
2022-09-12T01:25:51.986Z,100.00
2022-09-12T01:29:08.378Z,100.00
2022-09-12T01:32:42.550Z,100.00
2022-09-12T01:35:46.908Z,100.00
2022-09-12T01:38:50.088Z,100.00
2022-09-12T01:42:11.809Z,100.00
2022-09-12T01:45:25.244Z,100.00
2022-09-12T01:48:28.153Z,100.00
2022-09-12T01:51:35.877Z,100.00
2022-09-12T01:54:42.249Z,100.00
2022-09-12T01:57:54.444Z,100.00
2022-09-12T02:00:55.996Z,100.00
2022-09-12T02:04:03.550Z,100.00
2022-09-12T02:07:12.654Z,100.00
2022-09-12T02:10:18.299Z,100.00
2022-09-12T02:13:27.505Z,100.00
2022-09-12T02:16:30.422Z,100.00
2022-09-12T02:19:34.307Z,100.00
2022-09-12T02:22:35.988Z,100.00
2022-09-12T02:25:38.317Z,100.00
2022-09-12T02:28:41.741Z,100.00
2022-09-12T02:32:02.942Z,100.00
2022-09-12T02:35:08.834Z,100.00
2022-09-12T02:38:11.671Z,100.00
2022-09-12T02:41:14.612Z,100.00
2022-09-12T02:44:16.154Z,100.00
2022-09-12T02:47:23.464Z,100.00
2022-09-12T02:50:25.045Z,100.00
2022-09-12T02:53:26.782Z,100.00
2022-09-12T02:56:29.492Z,100.00
2022-09-12T02:59:31.051Z,100.00
2022-09-12T03:02:41.605Z,100.00
2022-09-12T03:05:47.497Z,100.00
2022-09-12T03:08:54.342Z,100.00
2022-09-12T03:11:59.083Z,100.00
2022-09-12T03:15:07.882Z,100.00
2022-09-12T03:18:12.622Z,100.00
2022-09-12T03:21:14.154Z,100.00
2022-09-12T03:24:20.652Z,100.00
2022-09-12T03:27:29.672Z,100.00
2022-09-12T03:30:32.435Z,100.00
2022-09-12T03:33:34.156Z,100.00
2022-09-12T03:36:35.810Z,100.00
2022-09-12T03:39:37.411Z,100.00
2022-09-12T03:42:39.332Z,100.00
2022-09-12T03:45:40.912Z,100.00
2022-09-12T03:48:42.509Z,100.00
2022-09-12T03:51:44.169Z,100.00
2022-09-12T03:54:45.709Z,100.00
2022-09-12T03:57:47.282Z,100.00
2022-09-12T04:00:48.863Z,100.00
2022-09-12T04:03:50.973Z,100.00
2022-09-12T04:06:52.568Z,100.00
2022-09-12T04:09:54.874Z,100.00
2022-09-12T04:12:56.418Z,100.00
2022-09-12T04:15:59.247Z,100.00
2022-09-12T04:19:00.929Z,100.00
2022-09-12T04:22:02.625Z,100.00
2022-09-12T04:25:04.436Z,100.00
2022-09-12T04:28:05.949Z,100.00
2022-09-12T04:31:12.356Z,100.00
2022-09-12T04:34:15.009Z,100.00
2022-09-12T04:37:17.023Z,100.00
2022-09-12T04:40:19.066Z,100.00
2022-09-12T04:43:20.655Z,100.00
2022-09-12T04:46:22.260Z,100.00
2022-09-12T04:49:24.039Z,100.00
2022-09-12T04:52:25.741Z,100.00
2022-09-12T04:55:28.270Z,100.00
2022-09-12T04:58:31.138Z,100.00
2022-09-12T05:01:33.115Z,100.00
2022-09-12T05:04:34.904Z,100.00
2022-09-12T05:07:36.730Z,100.00
2022-09-12T05:10:38.557Z,100.00
2022-09-12T05:13:40.796Z,100.00
2022-09-12T05:16:45.121Z,100.00
2022-09-12T05:19:50.947Z,100.00
2022-09-12T05:22:52.474Z,100.00
2022-09-12T05:25:54.671Z,100.00
2022-09-12T05:28:56.359Z,100.00
2022-09-12T05:31:58.000Z,100.00
2022-09-12T05:35:00.313Z,100.00
2022-09-12T05:38:01.909Z,100.00
2022-09-12T05:41:07.726Z,100.00
2022-09-12T05:44:11.869Z,100.00
2022-09-12T05:47:13.576Z,100.00
2022-09-12T05:50:15.300Z,100.00
2022-09-12T05:53:17.345Z,100.00
2022-09-12T05:56:20.893Z,100.00
2022-09-12T05:59:24.268Z,100.00
2022-09-12T06:02:26.748Z,100.00
2022-09-12T06:05:28.515Z,100.00
2022-09-12T06:08:31.054Z,100.00
2022-09-12T06:11:33.543Z,100.00
2022-09-12T06:14:35.198Z,100.00
2022-09-12T06:17:36.758Z,100.00
2022-09-12T06:20:38.331Z,100.00
2022-09-12T06:23:40.206Z,100.00
2022-09-12T06:26:41.996Z,100.00
2022-09-12T06:29:43.530Z,100.00
2022-09-12T06:32:45.156Z,100.00
2022-09-12T06:35:46.711Z,100.00
2022-09-12T06:38:51.243Z,100.00
2022-09-12T06:41:52.882Z,100.00
2022-09-12T06:45:08.026Z,100.00
2022-09-12T06:48:09.524Z,100.00
2022-09-12T06:51:13.485Z,100.00
2022-09-12T06:54:15.686Z,100.00
2022-09-12T06:57:18.020Z,100.00
2022-09-12T07:00:19.611Z,100.00
2022-09-12T07:03:21.210Z,100.00
2022-09-12T07:06:29.870Z,100.00
2022-09-12T07:09:31.402Z,100.00
2022-09-12T07:12:32.970Z,100.00
2022-09-12T07:15:35.065Z,100.00
2022-09-12T07:18:38.134Z,100.00
2022-09-12T07:21:40.494Z,100.00
2022-09-12T07:24:42.277Z,100.00
2022-09-12T07:27:46.210Z,100.00
2022-09-12T07:30:51.558Z,100.00
2022-09-12T07:33:54.818Z,100.00
2022-09-12T07:36:56.610Z,100.00
2022-09-12T07:39:58.724Z,100.00
2022-09-12T07:43:00.681Z,100.00
2022-09-12T07:46:02.365Z,100.00
2022-09-12T07:49:03.933Z,100.00
2022-09-12T07:52:05.760Z,100.00
2022-09-12T07:55:07.443Z,100.00
2022-09-12T07:58:09.013Z,100.00
2022-09-12T08:01:13.138Z,100.00
2022-09-12T08:04:14.790Z,100.00
2022-09-12T08:07:18.344Z,99.50
2022-09-12T08:10:19.989Z,99.57
2022-09-12T08:13:21.517Z,97.63
2022-09-12T08:16:26.669Z,97.64
2022-09-12T08:19:28.217Z,97.65
2022-09-12T08:22:30.725Z,97.90
2022-09-12T08:25:32.283Z,98.22
2022-09-12T08:28:41.038Z,97.98
2022-09-12T08:31:42.592Z,98.11
2022-09-12T08:34:44.242Z,98.55
2022-09-12T08:37:46.026Z,99.07
2022-09-12T08:40:51.978Z,97.79
2022-09-12T08:43:56.709Z,97.97
2022-09-12T08:47:04.493Z,98.83
2022-09-12T08:50:09.528Z,98.18
2022-09-12T08:53:14.666Z,99.21
2022-09-12T08:56:16.774Z,97.73
2022-09-12T08:59:18.298Z,97.08
2022-09-12T09:02:22.832Z,97.18
2022-09-12T09:05:36.786Z,95.98
2022-09-12T09:08:38.305Z,96.17
2022-09-12T09:11:47.946Z,93.52
2022-09-12T09:14:49.876Z,94.58
2022-09-12T09:18:10.787Z,94.58
2022-09-12T09:21:22.013Z,93.25
2022-09-12T09:24:27.752Z,92.03
2022-09-12T09:27:40.843Z,91.00
2022-09-12T09:30:44.772Z,91.94
2022-09-12T09:33:47.117Z,91.28
2022-09-12T09:36:52.855Z,89.19
2022-09-12T09:39:54.470Z,89.29
2022-09-12T09:42:56.209Z,88.95
2022-09-12T09:45:58.293Z,88.09
2022-09-12T09:49:02.454Z,89.23
2022-09-12T09:52:04.064Z,86.90
2022-09-12T09:55:05.789Z,86.57
2022-09-12T09:58:07.373Z,85.27
2022-09-12T10:01:16.385Z,82.78
2022-09-12T10:04:28.061Z,82.57
2022-09-12T10:07:29.711Z,80.42
2022-09-12T10:10:31.222Z,79.32
2022-09-12T10:13:37.936Z,78.36
2022-09-12T10:16:51.419Z,78.19
2022-09-12T10:20:04.861Z,78.57
2022-09-12T10:23:29.468Z,75.78
2022-09-12T10:26:35.681Z,79.37
2022-09-12T10:30:00.590Z,78.75
2022-09-12T10:33:08.718Z,78.19
2022-09-12T10:36:10.320Z,77.53
2022-09-12T10:39:13.945Z,77.22
2022-09-12T10:42:16.784Z,79.51
2022-09-12T10:45:24.921Z,80.34
2022-09-12T10:48:33.099Z,80.10
2022-09-12T10:51:34.949Z,84.18
2022-09-12T10:54:36.621Z,83.56
2022-09-12T10:57:38.200Z,85.68
2022-09-12T11:00:41.242Z,85.97
2022-09-12T11:03:42.768Z,83.75
2022-09-12T11:07:03.693Z,85.07
2022-09-12T11:10:19.675Z,85.39
2022-09-12T11:13:40.021Z,85.29
2022-09-12T11:16:43.072Z,86.60
2022-09-12T11:19:57.354Z,86.81
2022-09-12T11:23:22.289Z,85.50
2022-09-12T11:26:26.897Z,86.63
2022-09-12T11:29:47.283Z,85.39
2022-09-12T11:32:49.416Z,82.70
2022-09-12T11:35:55.431Z,82.21
2022-09-12T11:39:00.456Z,83.50
2022-09-12T11:42:02.611Z,82.86
2022-09-12T11:45:09.580Z,84.69
2022-09-12T11:48:31.106Z,82.81
2022-09-12T11:51:51.117Z,83.70
2022-09-12T11:54:53.879Z,84.10
2022-09-12T11:57:56.761Z,86.04
2022-09-12T12:01:24.527Z,88.35
2022-09-12T12:04:30.093Z,87.88
2022-09-12T12:07:32.203Z,87.27
2022-09-12T12:10:33.789Z,88.00
2022-09-12T12:13:43.480Z,86.92
2022-09-12T12:16:45.122Z,88.24
2022-09-12T12:19:46.705Z,87.49
2022-09-12T12:22:52.120Z,87.63
2022-09-12T12:25:55.008Z,89.20
2022-09-12T12:28:58.104Z,89.68
2022-09-12T12:31:59.593Z,89.45
2022-09-12T12:35:02.480Z,88.60
2022-09-12T12:38:04.674Z,88.70
2022-09-12T12:41:18.612Z,89.68
2022-09-12T12:44:43.748Z,89.26
2022-09-12T12:47:46.169Z,92.41
2022-09-12T12:50:48.441Z,91.94
2022-09-12T12:53:50.795Z,93.60
2022-09-12T12:57:00.558Z,95.23
2022-09-12T13:00:06.041Z,96.90
2022-09-12T13:03:07.667Z,99.70
2022-09-12T13:06:09.307Z,99.05
2022-09-12T13:09:29.116Z,98.00
2022-09-12T13:12:32.729Z,98.96
2022-09-12T13:15:37.583Z,97.66
2022-09-12T13:18:46.476Z,96.23
2022-09-12T13:21:55.201Z,95.72
2022-09-12T13:24:56.739Z,97.26
2022-09-12T13:28:02.738Z,96.84
2022-09-12T13:31:19.767Z,98.68
2022-09-12T13:34:44.702Z,98.85
2022-09-12T13:37:51.546Z,98.85
2022-09-12T13:41:00.095Z,98.43
2022-09-12T13:44:02.541Z,97.60
2022-09-12T13:47:04.151Z,98.37
2022-09-12T13:50:07.247Z,96.37
2022-09-12T13:53:17.300Z,97.22
2022-09-12T13:56:19.211Z,96.64
2022-09-12T13:59:21.110Z,96.51
2022-09-12T14:02:23.769Z,96.00
2022-09-12T14:05:25.941Z,95.90
2022-09-12T14:08:27.445Z,95.10
2022-09-12T14:11:29.921Z,94.50
2022-09-12T14:14:32.234Z,95.14
2022-09-12T14:17:39.738Z,93.24
2022-09-12T14:20:42.002Z,93.46
2022-09-12T14:23:43.926Z,91.68
2022-09-12T14:26:45.491Z,92.05
2022-09-12T14:29:47.346Z,91.13
2022-09-12T14:33:07.657Z,91.24
2022-09-12T14:36:15.569Z,90.12
2022-09-12T14:39:29.344Z,90.80
2022-09-12T14:42:31.368Z,91.88
2022-09-12T14:45:32.922Z,91.09
2022-09-12T14:48:37.772Z,91.62
2022-09-12T14:51:51.679Z,91.14
2022-09-12T14:55:18.786Z,91.56
2022-09-12T14:58:20.325Z,91.04
2022-09-12T15:01:22.929Z,91.06
2022-09-12T15:04:59.764Z,91.33
2022-09-12T15:08:01.910Z,91.00
2022-09-12T15:11:06.169Z,90.08
2022-09-12T15:14:13.844Z,90.40
2022-09-12T15:17:15.349Z,88.35
2022-09-12T15:20:16.890Z,89.41
2022-09-12T15:23:25.198Z,88.59
2022-09-12T15:26:30.490Z,87.69
2022-09-12T15:29:32.005Z,87.11
2022-09-12T15:32:33.538Z,85.90
2022-09-12T15:35:35.482Z,84.54
2022-09-12T15:38:37.123Z,84.03
2022-09-12T15:41:38.695Z,83.29
2022-09-12T15:44:40.314Z,80.98
2022-09-12T15:47:41.837Z,80.94
2022-09-12T15:50:43.590Z,79.74
2022-09-12T15:53:45.237Z,77.64
2022-09-12T15:56:47.256Z,78.17
2022-09-12T15:59:48.829Z,77.30
2022-09-12T16:02:51.174Z,77.71
2022-09-12T16:05:56.080Z,78.11
2022-09-12T16:08:57.635Z,77.04
2022-09-12T16:11:59.137Z,76.09
2022-09-12T16:15:00.870Z,74.94
2022-09-12T16:18:02.526Z,73.80
2022-09-12T16:21:04.189Z,71.59
2022-09-12T16:24:05.930Z,66.48
2022-09-12T16:27:09.389Z,64.17
2022-09-12T16:30:11.359Z,61.48
2022-09-12T16:33:13.327Z,60.88
2022-09-12T16:36:15.884Z,58.48
2022-09-12T16:39:17.600Z,56.93
2022-09-12T16:42:19.473Z,55.86
2022-09-12T16:45:21.114Z,55.72
2022-09-12T16:48:22.632Z,54.85
2022-09-12T16:51:28.537Z,54.95
2022-09-12T16:54:30.529Z,56.92
2022-09-12T16:57:32.826Z,56.21
2022-09-12T17:00:34.395Z,55.61
2022-09-12T17:03:36.197Z,54.73
2022-09-12T17:06:37.750Z,55.51
2022-09-12T17:09:39.926Z,55.90
2022-09-12T17:12:41.486Z,56.73
2022-09-12T17:15:43.087Z,57.79
2022-09-12T17:18:44.694Z,59.69
2022-09-12T17:21:48.707Z,59.20
2022-09-12T17:24:50.263Z,60.42
2022-09-12T17:27:53.095Z,60.48
2022-09-12T17:30:58.168Z,67.53
2022-09-12T17:34:00.190Z,72.64
2022-09-12T17:37:01.725Z,75.90
2022-09-12T17:40:03.890Z,76.45
2022-09-12T17:43:05.440Z,77.44
2022-09-12T17:46:07.904Z,78.97
2022-09-12T17:49:13.765Z,79.86
2022-09-12T17:52:15.661Z,77.42
2022-09-12T17:55:18.167Z,75.07
2022-09-12T17:58:20.668Z,76.30
2022-09-12T18:01:44.293Z,76.15
2022-09-12T18:04:46.827Z,75.24
2022-09-12T18:07:48.811Z,75.96
2022-09-12T18:10:51.182Z,77.28
2022-09-12T18:13:52.710Z,80.06
2022-09-12T18:16:54.358Z,81.52
2022-09-12T18:19:56.073Z,81.29
2022-09-12T18:22:57.904Z,81.97
2022-09-12T18:26:00.552Z,82.88
2022-09-12T18:29:05.723Z,83.18
2022-09-12T18:32:08.432Z,83.98
2022-09-12T18:35:12.157Z,84.92
2022-09-12T18:38:15.345Z,85.99
2022-09-12T18:41:18.399Z,86.09
2022-09-12T18:44:20.735Z,85.86
2022-09-12T18:47:24.633Z,86.57
2022-09-12T18:50:27.717Z,87.95
2022-09-12T18:53:29.406Z,88.74
2022-09-12T18:56:34.607Z,88.75
2022-09-12T18:59:36.154Z,89.19
2022-09-12T19:02:37.694Z,90.38
2022-09-12T19:05:39.997Z,90.17
2022-09-12T19:08:41.854Z,89.96
2022-09-12T19:11:50.313Z,89.50
2022-09-12T19:14:51.994Z,89.55
2022-09-12T19:17:53.623Z,90.12
2022-09-12T19:20:55.154Z,89.50
2022-09-12T19:23:58.153Z,88.45
2022-09-12T19:26:59.713Z,87.46
2022-09-12T19:30:01.298Z,87.35
2022-09-12T19:33:03.146Z,87.73
2022-09-12T19:36:10.648Z,87.94
2022-09-12T19:39:23.981Z,87.68
2022-09-12T19:42:25.531Z,88.02
2022-09-12T19:45:27.151Z,86.77
2022-09-12T19:48:29.318Z,86.25
2022-09-12T19:51:31.498Z,86.04
2022-09-12T19:54:33.146Z,86.79
2022-09-12T19:57:34.757Z,86.40
2022-09-12T20:00:36.554Z,86.74
2022-09-12T20:03:38.330Z,87.58
2022-09-12T20:06:39.917Z,88.50
2022-09-12T20:09:41.491Z,88.90
2022-09-12T20:12:43.161Z,89.42
2022-09-12T20:15:44.699Z,88.03
2022-09-12T20:18:46.313Z,86.16
2022-09-12T20:21:47.845Z,86.42
2022-09-12T20:24:49.539Z,86.40
2022-09-12T20:27:53.397Z,87.27
2022-09-12T20:31:03.427Z,88.51
2022-09-12T20:34:05.252Z,90.13
2022-09-12T20:37:06.899Z,90.65
2022-09-12T20:40:08.950Z,90.15
2022-09-12T20:43:10.571Z,91.01
2022-09-12T20:46:12.191Z,92.73
2022-09-12T20:49:13.893Z,91.69
2022-09-12T20:52:15.583Z,91.01
2022-09-12T20:55:17.154Z,91.97
2022-09-12T20:58:19.389Z,91.46
2022-09-12T21:01:21.294Z,90.98
2022-09-12T21:04:24.670Z,89.72
2022-09-12T21:07:26.298Z,89.41
2022-09-12T21:10:27.850Z,90.03
2022-09-12T21:13:29.938Z,89.63
2022-09-12T21:16:31.856Z,88.87
2022-09-12T21:19:34.256Z,88.37
2022-09-12T21:22:36.267Z,88.38
2022-09-12T21:25:37.857Z,88.64
2022-09-12T21:28:39.354Z,89.42
2022-09-12T21:31:41.756Z,89.21
2022-09-12T21:34:43.435Z,89.35
2022-09-12T21:37:45.101Z,89.69
2022-09-12T21:40:47.085Z,90.45
2022-09-12T21:43:48.783Z,90.26
2022-09-12T21:46:50.422Z,89.77
2022-09-12T21:49:52.145Z,89.95
2022-09-12T21:52:53.680Z,89.39
2022-09-12T21:55:55.266Z,89.20
2022-09-12T21:58:56.822Z,89.42
2022-09-12T22:01:58.521Z,89.64
2022-09-12T22:05:00.136Z,90.71
2022-09-12T22:08:02.001Z,90.76
2022-09-12T22:11:05.091Z,91.10
2022-09-12T22:14:06.669Z,91.87
2022-09-12T22:17:11.200Z,91.58
2022-09-12T22:20:12.798Z,90.73
2022-09-12T22:23:33.405Z,90.92
2022-09-12T22:26:42.181Z,90.97
2022-09-12T22:29:46.658Z,90.28
2022-09-12T22:32:50.025Z,90.47
2022-09-12T22:35:51.901Z,91.04
2022-09-12T22:38:53.549Z,93.11
2022-09-12T22:41:55.176Z,92.64
2022-09-12T22:44:56.832Z,92.49
2022-09-12T22:48:00.733Z,93.13
2022-09-12T22:51:03.001Z,93.55
2022-09-12T22:54:05.739Z,94.99
2022-09-12T22:57:07.409Z,95.25
2022-09-12T23:00:11.978Z,95.41
2022-09-12T23:03:13.681Z,95.71
2022-09-12T23:06:15.457Z,95.70
2022-09-12T23:09:17.022Z,95.90
2022-09-12T23:12:18.653Z,95.93
2022-09-12T23:15:20.319Z,95.35
2022-09-12T23:18:21.933Z,94.70
2022-09-12T23:21:23.701Z,94.51
2022-09-12T23:24:25.297Z,94.54
2022-09-12T23:27:27.831Z,94.91
2022-09-12T23:30:29.370Z,95.47
2022-09-12T23:46:55.645Z,100.00
2022-09-12T23:49:57.207Z,100.00
2022-09-12T23:52:58.725Z,100.00
2022-09-12T23:56:00.237Z,100.00
2022-09-12T23:59:01.741Z,100.00
